createdAt,value
2019-04-11T00:01:46.288Z,54.30
2019-04-11T00:04:11.336Z,54.30
2019-04-11T00:06:41.449Z,54.50
2019-04-11T00:09:14.411Z,54.70
2019-04-11T00:11:44.301Z,54.80
2019-04-11T00:14:14.218Z,54.80
2019-04-11T00:16:44.072Z,54.70
2019-04-11T00:19:13.870Z,54.70
2019-04-11T00:21:44.690Z,54.80
2019-04-11T00:24:14.542Z,54.90
2019-04-11T00:26:44.464Z,54.70
2019-04-11T00:29:14.398Z,55.00
2019-04-11T00:31:45.364Z,55.20
2019-04-11T00:34:15.815Z,55.30
2019-04-11T00:36:46.372Z,55.40
2019-04-11T00:39:16.401Z,55.50
2019-04-11T00:41:46.352Z,55.50
2019-04-11T00:44:16.855Z,55.40
2019-04-11T00:46:48.771Z,55.40
2019-04-11T00:49:18.792Z,55.40
2019-04-11T00:51:48.538Z,55.50
2019-04-11T00:54:18.496Z,55.90
2019-04-11T00:56:48.507Z,55.60
2019-04-11T00:59:18.349Z,55.70
2019-04-11T01:01:49.988Z,56.00
2019-04-11T01:04:20.048Z,56.20
2019-04-11T01:06:50.155Z,56.20
2019-04-11T01:09:20.140Z,56.20
2019-04-11T01:11:50.110Z,56.40
2019-04-11T01:14:20.085Z,56.50
2019-04-11T01:16:52.610Z,56.50
2019-04-11T01:19:22.651Z,56.60
2019-04-11T01:21:52.907Z,56.60
2019-04-11T01:24:23.861Z,57.10
2019-04-11T01:26:53.965Z,57.10
2019-04-11T01:29:25.102Z,57.10
2019-04-11T01:32:00.768Z,57.30
2019-04-11T01:34:30.790Z,57.30
2019-04-11T01:37:01.603Z,57.30
2019-04-11T01:39:52.329Z,57.50
2019-04-11T01:42:22.832Z,57.40
2019-04-11T01:44:52.727Z,57.40
2019-04-11T01:47:24.946Z,57.30
2019-04-11T01:49:54.746Z,57.40
2019-04-11T01:52:24.691Z,57.50
2019-04-11T01:54:54.473Z,57.30
2019-04-11T01:57:24.234Z,57.30
2019-04-11T01:59:54.043Z,57.40
2019-04-11T02:02:26.439Z,57.40
2019-04-11T02:05:10.493Z,57.20
2019-04-11T02:07:40.624Z,57.40
2019-04-11T02:10:10.632Z,57.30
2019-04-11T02:12:41.450Z,57.10
2019-04-11T02:15:12.339Z,57.10
2019-04-11T02:17:43.029Z,57.30
2019-04-11T02:20:14.518Z,57.00
2019-04-11T02:22:55.070Z,57.00
2019-04-11T02:25:32.396Z,57.00
2019-04-11T02:28:04.427Z,57.20
2019-04-11T02:30:38.190Z,57.50
2019-04-11T02:33:09.399Z,57.80
2019-04-11T02:35:40.005Z,58.10
2019-04-11T02:38:12.565Z,57.90
2019-04-11T02:40:43.116Z,57.80
2019-04-11T02:43:15.271Z,57.80
2019-04-11T02:45:55.304Z,57.60
2019-04-11T02:48:18.201Z,58.50
2019-04-11T02:50:50.192Z,58.40
2019-04-11T02:53:21.479Z,58.50
2019-04-11T02:55:54.034Z,58.70
2019-04-11T02:58:25.548Z,58.60
2019-04-11T03:00:59.292Z,58.60
2019-04-11T03:03:27.575Z,58.50
2019-04-11T03:05:58.203Z,59.00
2019-04-11T03:08:31.834Z,59.50
2019-04-11T03:11:01.802Z,59.60
2019-04-11T03:13:33.368Z,59.70
2019-04-11T03:16:18.711Z,59.80
2019-04-11T03:18:53.131Z,59.70
2019-04-11T03:21:13.759Z,59.60
2019-04-11T03:23:39.827Z,59.40
2019-04-11T03:26:12.378Z,59.70
2019-04-11T03:28:46.249Z,59.60
2019-04-11T03:31:50.519Z,59.40
2019-04-11T03:34:53.255Z,59.20
2019-04-11T03:37:08.852Z,59.40
2019-04-11T03:39:11.431Z,59.50
2019-04-11T03:41:38.817Z,59.60
2019-04-11T03:44:00.395Z,59.30
2019-04-11T03:46:42.937Z,59.50
2019-04-11T03:49:06.150Z,59.40
2019-04-11T03:51:29.700Z,59.40
2019-04-11T03:54:01.043Z,59.80
2019-04-11T03:56:33.037Z,60.00
2019-04-11T03:59:04.062Z,60.30
2019-04-11T04:01:34.963Z,60.70
2019-04-11T04:04:06.607Z,60.60
2019-04-11T04:06:37.436Z,60.20
2019-04-11T04:09:08.953Z,60.40
2019-04-11T04:11:41.037Z,61.10
2019-04-11T04:14:30.521Z,60.30
2019-04-11T04:17:04.154Z,60.30
2019-04-11T04:19:51.849Z,60.40
2019-04-11T04:22:24.764Z,60.30
2019-04-11T04:24:56.314Z,60.20
2019-04-11T04:27:28.038Z,60.50
2019-04-11T04:30:00.567Z,60.80
2019-04-11T04:32:30.763Z,60.50
2019-04-11T04:35:01.930Z,60.30
2019-04-11T04:37:34.619Z,60.50
2019-04-11T04:40:23.886Z,60.30
2019-04-11T04:42:44.460Z,60.40
2019-04-11T04:45:11.812Z,60.50
2019-04-11T04:47:47.679Z,60.40
2019-04-11T04:50:13.421Z,60.60
2019-04-11T04:52:44.986Z,61.20
2019-04-11T04:55:17.086Z,61.30
2019-04-11T04:57:46.998Z,61.40
2019-04-11T05:00:18.673Z,61.10
2019-04-11T05:02:50.263Z,60.90
2019-04-11T05:05:21.897Z,60.90
2019-04-11T05:07:52.145Z,60.90
2019-04-11T05:10:22.230Z,61.50
2019-04-11T05:12:52.062Z,62.00
2019-04-11T05:15:21.937Z,62.30
2019-04-11T05:17:53.201Z,62.20
2019-04-11T05:20:23.848Z,62.00
2019-04-11T05:22:53.731Z,61.80
2019-04-11T05:25:23.689Z,61.10
2019-04-11T05:27:54.065Z,60.20
2019-04-11T05:30:25.153Z,59.00
2019-04-11T05:32:55.739Z,58.10
2019-04-11T05:35:25.568Z,57.20
2019-04-11T05:37:55.791Z,55.70
2019-04-11T05:40:26.008Z,54.80
2019-04-11T05:42:55.967Z,53.70
2019-04-11T05:45:26.468Z,52.70
2019-04-11T05:47:57.984Z,51.60
2019-04-11T05:50:29.799Z,50.40
2019-04-11T05:53:02.394Z,49.80
2019-04-11T05:55:34.120Z,48.70
2019-04-11T05:58:08.671Z,47.90
2019-04-11T06:00:55.881Z,47.20
2019-04-11T06:03:28.343Z,46.40
2019-04-11T06:06:06.519Z,45.40
2019-04-11T06:08:36.353Z,44.10
2019-04-11T06:11:07.801Z,43.40
2019-04-11T06:13:40.578Z,42.40
2019-04-11T06:16:12.532Z,41.60
2019-04-11T06:18:45.765Z,41.70
2019-04-11T06:21:26.545Z,40.70
2019-04-11T06:24:04.516Z,40.00
2019-04-11T06:26:42.812Z,40.50
2019-04-11T06:29:24.291Z,39.40
2019-04-11T06:31:57.231Z,39.20
2019-04-11T06:34:28.776Z,38.70
2019-04-11T06:37:03.568Z,38.20
2019-04-11T06:39:41.325Z,37.60
2019-04-11T06:42:30.184Z,37.40
2019-04-11T06:45:19.664Z,36.40
2019-04-11T06:47:53.429Z,35.70
2019-04-11T06:50:26.937Z,35.50
2019-04-11T06:52:58.618Z,35.30
2019-04-11T06:55:42.675Z,35.00
2019-04-11T06:58:15.033Z,34.60
2019-04-11T07:00:47.517Z,33.30
2019-04-11T07:03:23.118Z,33.80
2019-04-11T07:05:51.038Z,33.30
2019-04-11T07:08:23.970Z,33.20
2019-04-11T07:10:55.709Z,32.70
2019-04-11T07:13:43.356Z,33.20
2019-04-11T07:16:13.615Z,33.00
2019-04-11T07:18:54.786Z,32.60
2019-04-11T07:21:27.394Z,32.20
2019-04-11T07:24:16.090Z,32.00
2019-04-11T07:26:46.504Z,32.80
2019-04-11T07:29:17.955Z,32.50
2019-04-11T07:32:05.249Z,32.20
2019-04-11T07:34:56.584Z,31.20
2019-04-11T07:37:30.721Z,30.40
2019-04-11T07:40:15.609Z,29.90
2019-04-11T07:42:53.348Z,30.40
2019-04-11T07:45:32.187Z,30.80
2019-04-11T07:48:04.137Z,30.60
2019-04-11T07:50:35.422Z,30.40
2019-04-11T07:53:07.158Z,30.00
2019-04-11T07:55:38.730Z,29.90
2019-04-11T07:58:22.162Z,30.00
2019-04-11T08:00:55.851Z,29.70
2019-04-11T08:03:36.330Z,29.70
2019-04-11T08:06:07.841Z,29.80
2019-04-11T08:08:43.141Z,29.70
2019-04-11T08:11:23.336Z,29.60
2019-04-11T08:14:12.874Z,29.70
2019-04-11T08:17:01.564Z,29.30
2019-04-11T08:19:49.555Z,29.40
2019-04-11T08:22:33.257Z,29.40
2019-04-11T08:25:15.387Z,29.30
2019-04-11T08:27:54.872Z,29.70
2019-04-11T08:30:22.479Z,29.70
2019-04-11T08:33:02.821Z,29.70
2019-04-11T08:35:40.266Z,29.80
2019-04-11T08:38:18.491Z,29.90
2019-04-11T08:41:07.303Z,30.10
2019-04-11T08:43:37.656Z,29.60
2019-04-11T08:46:15.047Z,29.10
2019-04-11T08:48:51.112Z,29.30
2019-04-11T08:51:23.195Z,29.70
2019-04-11T08:54:11.163Z,29.40
2019-04-11T08:56:43.190Z,29.80
2019-04-11T08:59:33.597Z,30.00
2019-04-11T09:02:06.665Z,30.00
2019-04-11T09:05:04.901Z,30.00
2019-04-11T09:07:38.072Z,29.30
2019-04-11T09:10:26.203Z,28.60
2019-04-11T09:13:07.465Z,28.40
2019-04-11T09:15:55.101Z,28.60
2019-04-11T09:18:25.984Z,28.00
2019-04-11T09:21:06.025Z,28.20
2019-04-11T09:23:37.662Z,28.50
2019-04-11T09:26:18.087Z,28.40
2019-04-11T09:28:49.329Z,28.20
2019-04-11T09:31:37.880Z,28.60
2019-04-11T09:34:28.042Z,29.10
2019-04-11T09:37:05.304Z,29.10
2019-04-11T09:39:37.225Z,29.50
2019-04-11T09:42:24.436Z,29.90
2019-04-11T09:44:55.882Z,30.00
2019-04-11T09:47:40.407Z,30.00
2019-04-11T09:50:18.287Z,30.00
2019-04-11T09:52:51.524Z,30.00
2019-04-11T09:55:25.906Z,29.80
2019-04-11T09:58:01.184Z,29.80
2019-04-11T10:00:51.085Z,29.90
2019-04-11T10:03:28.599Z,29.90
2019-04-11T10:06:15.840Z,30.10
2019-04-11T10:08:47.286Z,30.80
2019-04-11T10:11:38.039Z,31.10
2019-04-11T10:14:13.529Z,31.60
2019-04-11T10:17:00.277Z,31.60
2019-04-11T10:19:34.448Z,31.90
2019-04-11T10:22:22.782Z,32.20
2019-04-11T10:25:00.976Z,32.70
2019-04-11T10:27:49.050Z,33.40
2019-04-11T10:30:37.702Z,33.30
2019-04-11T10:33:15.275Z,33.80
2019-04-11T10:35:58.931Z,33.80
2019-04-11T10:38:28.792Z,34.00
2019-04-11T10:41:00.893Z,33.90
2019-04-11T10:43:34.174Z,34.10
2019-04-11T10:46:17.577Z,34.50
2019-04-11T10:49:07.491Z,34.60
2019-04-11T10:51:42.295Z,34.80
2019-04-11T10:54:13.797Z,34.50
2019-04-11T10:56:45.364Z,34.10
2019-04-11T10:59:15.491Z,34.10
2019-04-11T11:01:50.607Z,33.90
2019-04-11T11:04:27.813Z,34.00
2019-04-11T11:07:00.151Z,34.10
2019-04-11T11:09:35.586Z,34.20
2019-04-11T11:12:25.245Z,34.40
2019-04-11T11:14:58.782Z,34.20
2019-04-11T11:17:52.637Z,33.60
2019-04-11T11:20:21.494Z,33.90
2019-04-11T11:22:53.534Z,33.90
2019-04-11T11:25:48.301Z,33.90
2019-04-11T11:28:16.306Z,34.10
2019-04-11T11:31:05.467Z,34.20
2019-04-11T11:33:35.782Z,34.20
2019-04-11T11:36:23.569Z,34.20
2019-04-11T11:39:11.386Z,34.20
2019-04-11T11:42:01.954Z,33.80
2019-04-11T11:44:49.490Z,33.90
2019-04-11T11:47:39.544Z,33.90
2019-04-11T11:50:21.770Z,33.70
2019-04-11T11:53:13.262Z,33.70
2019-04-11T11:55:43.793Z,33.70
2019-04-11T11:58:17.023Z,33.80
2019-04-11T12:00:50.756Z,33.80
2019-04-11T12:03:33.104Z,33.80
2019-04-11T12:06:05.270Z,33.70
2019-04-11T12:08:36.988Z,33.60
2019-04-11T12:11:08.448Z,33.30
2019-04-11T12:13:40.715Z,33.40
2019-04-11T12:16:16.065Z,33.40
2019-04-11T12:18:53.888Z,33.40
2019-04-11T12:21:28.504Z,33.10
2019-04-11T12:24:05.608Z,32.90
2019-04-11T12:26:34.081Z,33.10
2019-04-11T12:29:12.316Z,32.80
2019-04-11T12:31:44.515Z,33.20
2019-04-11T12:34:16.432Z,33.20
2019-04-11T12:36:50.899Z,33.30
2019-04-11T12:39:28.765Z,33.50
2019-04-11T12:42:00.137Z,33.70
2019-04-11T12:44:31.760Z,33.60
2019-04-11T12:47:07.849Z,33.60
2019-04-11T12:49:52.736Z,33.40
2019-04-11T12:52:35.976Z,33.80
2019-04-11T12:55:14.555Z,33.40
2019-04-11T12:58:02.314Z,33.40
2019-04-11T13:00:51.921Z,33.10
2019-04-11T13:03:39.750Z,33.40
2019-04-11T13:06:11.900Z,33.60
2019-04-11T13:08:49.250Z,33.50
2019-04-11T13:11:20.790Z,33.60
2019-04-11T13:13:52.310Z,33.80
2019-04-11T13:16:23.898Z,34.10
2019-04-11T13:19:12.368Z,34.20
2019-04-11T13:21:43.818Z,33.80
2019-04-11T13:24:26.877Z,33.80
2019-04-11T13:26:58.291Z,34.40
2019-04-11T13:29:38.412Z,34.90
2019-04-11T13:32:26.238Z,35.10
2019-04-11T13:35:15.928Z,35.00
2019-04-11T13:38:06.092Z,34.80
2019-04-11T13:40:46.653Z,34.90
2019-04-11T13:43:23.841Z,35.10
2019-04-11T13:45:55.280Z,34.90
2019-04-11T13:48:45.265Z,34.90
2019-04-11T13:51:31.962Z,35.20
2019-04-11T13:57:10.220Z,35.30
2019-04-11T13:59:58.113Z,35.10
2019-04-11T14:02:29.645Z,35.10
2019-04-11T14:05:00.909Z,35.30
2019-04-11T14:07:30.720Z,35.20
2019-04-11T14:10:02.493Z,35.10
2019-04-11T14:12:34.110Z,35.00
2019-04-11T14:15:07.205Z,35.10
2019-04-11T14:17:41.821Z,35.10
2019-04-11T14:20:29.753Z,34.90
2019-04-11T14:23:04.567Z,34.60
2019-04-11T14:25:51.074Z,34.90
2019-04-11T14:28:22.584Z,35.00
2019-04-11T14:31:12.989Z,34.90
2019-04-11T14:33:47.705Z,34.70
2019-04-11T14:36:35.552Z,34.80
2019-04-11T14:39:08.854Z,35.10
2019-04-11T14:41:56.394Z,35.00
2019-04-11T14:44:28.534Z,35.00
2019-04-11T14:47:17.333Z,34.70
2019-04-11T14:49:48.850Z,34.60
2019-04-11T14:52:35.178Z,34.80
2019-04-11T14:55:08.623Z,34.90
2019-04-11T14:57:54.690Z,35.00
2019-04-11T15:00:26.422Z,35.00
2019-04-11T15:02:57.870Z,35.00
2019-04-11T15:05:38.474Z,35.10
2019-04-11T15:08:09.917Z,35.20
2019-04-11T15:10:41.441Z,35.60
2019-04-11T15:13:12.649Z,35.20
2019-04-11T15:15:46.845Z,35.20
2019-04-11T15:18:18.300Z,35.10
2019-04-11T15:20:55.506Z,35.00
2019-04-11T15:23:25.485Z,35.30
2019-04-11T15:26:13.415Z,35.40
2019-04-11T15:28:50.783Z,35.50
2019-04-11T15:31:25.024Z,35.70
2019-04-11T15:33:56.469Z,35.80
2019-04-11T15:36:28.565Z,35.70
2019-04-11T15:39:01.132Z,35.70
2019-04-11T15:41:32.996Z,35.70
2019-04-11T15:44:13.934Z,35.50
2019-04-11T15:46:47.619Z,35.50
2019-04-11T15:49:33.962Z,35.40
2019-04-11T15:52:06.913Z,35.50
2019-04-11T15:54:54.838Z,35.70
2019-04-11T15:57:28.933Z,35.60
2019-04-11T16:00:03.932Z,35.90
2019-04-11T16:02:42.337Z,36.00
2019-04-11T16:05:32.205Z,36.10
2019-04-11T16:08:24.624Z,36.20
2019-04-11T16:11:13.012Z,36.30
2019-04-11T16:13:53.454Z,36.80
2019-04-11T16:16:25.161Z,36.50
2019-04-11T16:19:14.774Z,36.60
2019-04-11T16:21:49.770Z,36.80
2019-04-11T16:24:30.416Z,36.90
2019-04-11T16:27:04.852Z,37.00
2019-04-11T16:29:38.771Z,37.10
2019-04-11T16:32:15.709Z,37.20
2019-04-11T16:35:05.167Z,37.30
2019-04-11T16:37:35.046Z,37.40
2019-04-11T16:40:23.661Z,37.50
2019-04-11T16:42:55.394Z,37.70
2019-04-11T16:45:27.029Z,37.80
2019-04-11T16:48:02.080Z,38.00
2019-04-11T16:50:33.312Z,38.20
2019-04-11T16:53:03.570Z,38.30
2019-04-11T16:55:33.469Z,38.30
2019-04-11T16:58:03.418Z,38.60
2019-04-11T17:00:33.224Z,38.70
2019-04-11T17:03:03.078Z,38.90
2019-04-11T17:05:33.016Z,39.20
2019-04-11T17:08:20.680Z,39.40
2019-04-11T17:11:06.478Z,39.40
2019-04-11T17:13:36.279Z,39.70
2019-04-11T17:16:07.744Z,39.90
2019-04-11T17:18:37.686Z,40.20
2019-04-11T17:21:08.714Z,40.30
2019-04-11T17:23:38.632Z,40.50
2019-04-11T17:26:08.453Z,40.70
2019-04-11T17:28:38.246Z,40.80
2019-04-11T17:31:08.018Z,40.90
2019-04-11T17:33:37.817Z,41.00
2019-04-11T17:36:07.626Z,41.00
2019-04-11T17:38:37.812Z,41.20
2019-04-11T17:41:10.910Z,41.20
2019-04-11T17:43:42.176Z,41.50
2019-04-11T17:46:11.756Z,41.70
2019-04-11T17:48:41.630Z,41.90
2019-04-11T17:51:11.601Z,42.00
2019-04-11T17:53:41.794Z,42.20
2019-04-11T17:56:11.587Z,42.20
2019-04-11T17:58:41.380Z,42.50
2019-04-11T18:01:11.573Z,42.50
2019-04-11T18:03:42.100Z,42.60
2019-04-11T18:06:16.948Z,42.70
2019-04-11T18:08:46.495Z,42.80
2019-04-11T18:11:16.241Z,42.90
2019-04-11T18:13:46.015Z,43.00
2019-04-11T18:16:15.950Z,43.10
2019-04-11T18:18:45.910Z,43.40
2019-04-11T18:21:16.830Z,43.40
2019-04-11T18:23:49.823Z,43.30
2019-04-11T18:26:19.060Z,43.50
2019-04-11T18:28:52.002Z,43.60
2019-04-11T18:31:24.960Z,43.80
2019-04-11T18:33:55.341Z,43.70
2019-04-11T18:36:25.156Z,43.80
2019-04-11T18:38:54.957Z,44.00
2019-04-11T18:41:24.749Z,43.90
2019-04-11T18:43:54.546Z,43.90
2019-04-11T18:46:24.352Z,43.90
2019-04-11T18:48:54.586Z,43.80
2019-04-11T18:51:24.512Z,43.90
2019-04-11T18:53:54.333Z,43.90
2019-04-11T18:56:24.884Z,44.10
2019-04-11T18:58:54.830Z,44.20
2019-04-11T19:01:25.871Z,44.00
2019-04-11T19:03:55.702Z,44.20
2019-04-11T19:06:27.961Z,44.30
2019-04-11T19:08:57.162Z,44.30
2019-04-11T19:11:27.135Z,44.30
2019-04-11T19:13:58.050Z,44.40
2019-04-11T19:16:27.846Z,44.50
2019-04-11T19:18:57.728Z,44.60
2019-04-11T19:21:27.539Z,44.60
2019-04-11T19:23:57.458Z,44.80
2019-04-11T19:26:28.225Z,44.80
2019-04-11T19:29:00.229Z,45.00
2019-04-11T19:31:30.007Z,45.30
2019-04-11T19:33:59.787Z,45.10
2019-04-11T19:36:29.616Z,45.00
2019-04-11T19:39:01.140Z,45.30
2019-04-11T19:41:32.448Z,45.20
2019-04-11T19:44:02.976Z,45.50
2019-04-11T19:46:32.745Z,45.50
2019-04-11T19:49:02.502Z,45.50
2019-04-11T19:51:32.406Z,45.70
2019-04-11T19:54:03.288Z,45.60
2019-04-11T19:56:44.622Z,45.80
2019-04-11T19:59:14.443Z,45.60
2019-04-11T20:01:44.427Z,45.70
2019-04-11T20:04:14.188Z,45.90
2019-04-11T20:06:44.108Z,45.90
2019-04-11T20:09:14.117Z,46.10
2019-04-11T20:11:44.948Z,46.30
2019-04-11T20:14:14.973Z,46.20
2019-04-11T20:16:48.395Z,46.30
2019-04-11T20:19:16.286Z,46.50
2019-04-11T20:21:46.058Z,46.40
2019-04-11T20:24:15.870Z,46.50
2019-04-11T20:26:49.726Z,46.70
2019-04-11T20:29:18.936Z,46.70
2019-04-11T20:31:48.630Z,46.50
2019-04-11T20:34:27.359Z,46.80
2019-04-11T20:36:50.722Z,46.90
2019-04-11T20:39:20.797Z,46.90
2019-04-11T20:41:53.268Z,47.20
2019-04-11T20:44:22.180Z,47.10
2019-04-11T20:46:51.937Z,47.10
2019-04-11T20:49:21.799Z,47.20
2019-04-11T20:51:51.632Z,47.10
2019-04-11T20:54:22.195Z,47.00
2019-04-11T20:56:52.084Z,47.10
2019-04-11T20:59:21.868Z,47.10
2019-04-11T21:01:53.598Z,46.90
2019-04-11T21:04:23.132Z,46.90
2019-04-11T21:06:52.906Z,47.00
2019-04-11T21:09:22.776Z,47.10
2019-04-11T21:11:52.537Z,47.20
2019-04-11T21:14:22.463Z,47.00
2019-04-11T21:16:52.235Z,47.10
2019-04-11T21:19:23.277Z,47.10
2019-04-11T21:21:54.433Z,47.00
2019-04-11T21:24:24.358Z,47.40
2019-04-11T21:26:54.601Z,47.00
2019-04-11T21:29:25.668Z,47.00
2019-04-11T21:31:55.554Z,47.10
2019-04-11T21:34:25.408Z,47.10
2019-04-11T21:36:55.248Z,46.80
2019-04-11T21:39:25.130Z,47.50
2019-04-11T21:41:55.185Z,47.40
2019-04-11T21:44:25.003Z,48.00
2019-04-11T21:46:54.797Z,48.30
2019-04-11T21:49:24.603Z,48.20
2019-04-11T21:51:54.410Z,48.70
2019-04-11T21:54:24.215Z,48.60
2019-04-11T21:56:54.051Z,48.80
2019-04-11T21:59:23.845Z,48.80
2019-04-11T22:01:54.660Z,49.10
2019-04-11T22:04:26.863Z,49.00
2019-04-11T22:06:56.127Z,49.00
2019-04-11T22:09:25.898Z,49.20
2019-04-11T22:11:55.661Z,49.30
2019-04-11T22:14:25.453Z,49.30
2019-04-11T22:16:55.249Z,50.10
2019-04-11T22:19:25.053Z,49.50
2019-04-11T22:21:54.821Z,49.60
2019-04-11T22:24:24.636Z,49.60
2019-04-11T22:26:54.420Z,49.80
2019-04-11T22:29:25.039Z,50.00
2019-04-11T22:31:56.048Z,50.00
2019-04-11T22:34:34.754Z,50.30
2019-04-11T22:37:04.693Z,50.10
2019-04-11T22:39:34.794Z,50.30
2019-04-11T22:42:04.876Z,50.20
2019-04-11T22:44:35.556Z,50.30
2019-04-11T22:47:08.001Z,50.70
2019-04-11T22:49:39.390Z,50.60
2019-04-11T22:52:11.300Z,50.80
2019-04-11T22:54:41.811Z,51.00
2019-04-11T22:57:12.809Z,51.40
2019-04-11T22:59:44.878Z,51.30
2019-04-11T23:02:17.136Z,51.40
2019-04-11T23:04:47.635Z,51.30
2019-04-11T23:07:18.466Z,51.40
2019-04-11T23:09:48.974Z,51.50
2019-04-11T23:12:19.330Z,51.50
2019-04-11T23:14:49.120Z,51.60
2019-04-11T23:17:18.958Z,51.70
2019-04-11T23:19:48.782Z,51.90
2019-04-11T23:22:18.582Z,51.80
2019-04-11T23:24:48.424Z,52.00
2019-04-11T23:27:18.449Z,52.20
2019-04-11T23:29:48.255Z,52.10
2019-04-11T23:32:18.873Z,52.10
2019-04-11T23:34:49.929Z,51.90
2019-04-11T23:37:21.738Z,51.90
2019-04-11T23:39:51.719Z,52.20
2019-04-11T23:42:21.815Z,52.40
2019-04-11T23:44:51.581Z,52.50
2019-04-11T23:47:33.175Z,52.50
2019-04-11T23:50:02.957Z,52.70
2019-04-11T23:52:32.905Z,52.70
2019-04-11T23:55:02.696Z,52.70
2019-04-11T23:57:32.508Z,52.80
